createdAt,value
2019-02-22T00:06:06.182Z,10.90
2019-02-22T00:16:08.684Z,10.90
2019-02-22T00:26:11.634Z,10.90
2019-02-22T00:36:14.103Z,10.90
2019-02-22T00:46:17.655Z,10.90
2019-02-22T00:56:19.411Z,10.80
2019-02-22T01:06:21.450Z,10.80
2019-02-22T01:16:23.530Z,10.80
2019-02-22T01:26:25.499Z,10.80
2019-02-22T01:36:28.447Z,10.80
2019-02-22T01:46:32.401Z,10.80
2019-02-22T01:56:34.390Z,10.80
2019-02-22T02:06:36.575Z,10.70
2019-02-22T02:16:38.956Z,10.70
2019-02-22T02:26:41.096Z,10.70
2019-02-22T02:36:43.263Z,10.70
2019-02-22T02:46:45.321Z,10.60
2019-02-22T02:56:47.273Z,10.70
2019-02-22T03:06:49.297Z,10.70
2019-02-22T03:16:51.225Z,10.70
2019-02-22T03:26:53.209Z,10.70
2019-02-22T03:36:55.505Z,10.70
2019-02-22T03:46:58.239Z,10.70
2019-02-22T03:57:00.546Z,10.70
2019-02-22T04:07:02.520Z,10.60
2019-02-22T04:17:04.726Z,10.70
2019-02-22T04:27:08.469Z,10.60
2019-02-22T04:37:10.715Z,10.60
2019-02-22T04:47:12.720Z,10.50
2019-02-22T04:57:14.699Z,10.50
2019-02-22T05:07:17.240Z,10.60
2019-02-22T05:17:19.255Z,10.60
2019-02-22T05:27:21.722Z,10.60
2019-02-22T05:37:24.321Z,10.60
2019-02-22T05:47:26.590Z,10.60
2019-02-22T05:57:28.829Z,10.50
2019-02-22T06:07:30.874Z,10.60
2019-02-22T06:17:32.950Z,10.50
2019-02-22T06:27:35.321Z,10.50
2019-02-22T06:37:37.459Z,10.50
2019-02-22T06:47:39.620Z,10.50
2019-02-22T06:57:41.727Z,10.50
2019-02-22T07:07:44.033Z,10.50
2019-02-22T07:17:46.423Z,10.60
2019-02-22T07:27:48.585Z,10.60
2019-02-22T07:37:50.817Z,10.70
2019-02-22T07:47:52.980Z,10.70
2019-02-22T07:57:54.982Z,10.70
2019-02-22T08:07:57.377Z,10.80
2019-02-22T08:17:59.346Z,10.90
2019-02-22T08:28:01.587Z,11.00
2019-02-22T08:38:04.063Z,11.10
2019-02-22T08:48:06.305Z,11.00
2019-02-22T08:58:08.386Z,11.20
2019-02-22T09:08:10.370Z,11.30
2019-02-22T09:18:13.723Z,11.30
2019-02-22T09:28:15.931Z,11.60
2019-02-22T09:38:17.909Z,12.00
2019-02-22T09:48:20.198Z,12.00
2019-02-22T09:58:22.511Z,12.60
2019-02-22T10:08:24.811Z,13.00
2019-02-22T10:18:26.878Z,13.10
2019-02-22T10:28:28.907Z,13.40
2019-02-22T10:38:35.827Z,13.60
2019-02-22T10:48:38.270Z,13.90
2019-02-22T10:58:40.579Z,13.60
2019-02-22T11:08:43.123Z,13.20
2019-02-22T11:18:45.093Z,13.60
2019-02-22T11:28:49.088Z,14.50
2019-02-22T11:38:50.919Z,14.40
2019-02-22T11:48:55.926Z,14.70
2019-02-22T11:58:59.210Z,14.70
2019-02-22T12:09:01.228Z,15.30
2019-02-22T12:19:03.529Z,15.80
2019-02-22T12:29:05.492Z,15.90
2019-02-22T12:39:08.510Z,16.30
2019-02-22T12:49:10.449Z,15.70
2019-02-22T12:59:12.454Z,16.10
2019-02-22T13:09:14.511Z,16.00
2019-02-22T13:19:16.559Z,15.30
2019-02-22T13:29:18.800Z,15.90
2019-02-22T13:39:20.872Z,15.40
2019-02-22T13:49:23.070Z,15.10
2019-02-22T13:59:25.031Z,15.90
2019-02-22T14:09:27.016Z,15.60
2019-02-22T14:19:29.041Z,15.40
2019-02-22T14:29:31.031Z,15.40
2019-02-22T14:39:33.025Z,15.90
2019-02-22T14:49:34.975Z,16.30
2019-02-22T14:59:36.975Z,15.90
2019-02-22T15:09:39.266Z,15.60
2019-02-22T15:19:41.526Z,15.60
2019-02-22T15:29:43.472Z,15.10
2019-02-22T15:39:45.444Z,15.00
2019-02-22T15:49:48.938Z,15.00
2019-02-22T15:59:51.397Z,14.70
2019-02-22T16:09:54.699Z,14.40
2019-02-22T16:19:57.691Z,14.00
2019-02-22T16:30:00.006Z,13.90
2019-02-22T16:40:02.576Z,13.60
2019-02-22T16:50:06.358Z,13.60
2019-02-22T17:00:10.259Z,13.40
2019-02-22T17:10:13.024Z,13.30
2019-02-22T17:20:15.102Z,13.20
2019-02-22T17:30:17.319Z,13.10
2019-02-22T17:40:19.431Z,13.00
2019-02-22T17:50:21.613Z,13.00
2019-02-22T18:00:23.763Z,12.90
2019-02-22T18:10:25.880Z,12.70
2019-02-22T18:20:28.312Z,12.50
2019-02-22T18:30:30.382Z,12.30
2019-02-22T18:40:32.733Z,12.10
2019-02-22T18:50:34.961Z,12.00
2019-02-22T19:00:37.062Z,11.90
2019-02-22T19:10:40.863Z,11.80
2019-02-22T19:20:44.658Z,11.80
2019-02-22T19:30:47.061Z,11.70
2019-02-22T19:40:49.757Z,11.70
2019-02-22T19:50:52.161Z,11.60
2019-02-22T20:00:54.136Z,11.50
2019-02-22T20:10:56.536Z,11.30
2019-02-22T20:20:58.494Z,11.20
2019-02-22T20:31:00.531Z,11.10
2019-02-22T20:41:02.656Z,11.00
2019-02-22T20:51:04.652Z,11.00
2019-02-22T21:01:14.442Z,11.00
2019-02-22T21:11:10.978Z,10.90
2019-02-22T21:21:14.206Z,10.90
2019-02-22T21:31:16.335Z,10.90
2019-02-22T21:41:18.440Z,10.70
2019-02-22T21:51:20.454Z,10.60
2019-02-22T22:01:22.767Z,10.40
2019-02-22T22:11:24.760Z,10.40
2019-02-22T22:21:26.714Z,10.30
2019-02-22T22:31:28.718Z,10.20
2019-02-22T22:41:30.911Z,10.20
2019-02-22T22:51:32.900Z,10.10
2019-02-22T23:01:34.910Z,10.00
2019-02-22T23:11:37.395Z,10.00
2019-02-22T23:21:39.981Z,9.80
2019-02-22T23:31:42.071Z,9.80
2019-02-22T23:41:44.150Z,9.70
2019-02-22T23:51:46.153Z,9.70
